Time;durP1;ratioP1;P1;durP2;ratioP2;P2;SDS_P1;SDS_P2;PMS_P1;PMS_P2;Temp;Humidity;BMP_temperature;BMP_pressure;BME280_temperature;BME280_humidity;BME280_pressure;Samples;Min_cycle;Max_cycle;Signal;HPM_P1;HPM_P2
2022/10/08 00:01:14;;;;;;;12.02;2.67;;;14.90;78.30;;;;;;5022740;28;20040;-75
2022/10/08 00:03:43;;;;;;;11.88;3.72;;;14.90;78.20;;;;;;5031328;28;20487;-73
2022/10/08 00:06:18;;;;;;;15.95;2.90;;;14.90;78.50;;;;;;5030360;28;20037;-75
2022/10/08 00:08:48;;;;;;;12.60;3.17;;;14.80;78.70;;;;;;5029844;28;20091;-74
2022/10/08 00:11:18;;;;;;;11.65;3.28;;;14.90;78.80;;;;;;5013354;28;20522;-75
2022/10/08 00:13:46;;;;;;;13.90;3.30;;;14.90;78.80;;;;;;5029894;28;20030;-73
2022/10/08 00:16:20;;;;;;;15.48;4.22;;;14.90;79.10;;;;;;5029473;28;20026;-74
2022/10/08 00:18:48;;;;;;;9.38;2.95;;;14.80;79.40;;;;;;5012974;28;20019;-74
2022/10/08 00:21:20;;;;;;;11.50;3.00;;;14.90;79.50;;;;;;5018971;28;20077;-74
2022/10/08 00:23:48;;;;;;;11.32;4.03;;;14.90;79.30;;;;;;5030529;28;20105;-74
2022/10/08 00:26:15;;;;;;;10.73;4.05;;;14.90;79.20;;;;;;5030586;28;20510;-75
2022/10/08 00:28:44;;;;;;;17.75;3.80;;;14.90;80.00;;;;;;5028029;28;20100;-74
2022/10/08 00:31:15;;;;;;;17.95;3.80;;;14.90;80.00;;;;;;5011178;28;20033;-75
2022/10/08 00:33:41;;;;;;;14.07;3.53;;;14.90;80.70;;;;;;5027427;28;20492;-73
2022/10/08 00:36:10;;;;;;;9.95;2.45;;;14.90;80.80;;;;;;5031290;28;20025;-74
2022/10/08 00:38:36;;;;;;;12.03;3.53;;;14.80;80.20;;;;;;5030190;28;20021;-75
2022/10/08 00:41:04;;;;;;;11.65;3.15;;;14.90;80.60;;;;;;5030816;28;20120;-75
2022/10/08 00:43:51;;;;;;;13.90;3.92;;;14.90;80.40;;;;;;5030231;28;20020;-75
2022/10/08 00:46:34;;;;;;;14.88;4.05;;;14.90;80.60;;;;;;5029738;28;20053;-75
2022/10/08 00:49:01;;;;;;;10.60;3.83;;;14.80;81.40;;;;;;5009224;28;20109;-74
2022/10/08 00:51:27;;;;;;;14.27;3.83;;;14.80;82.90;;;;;;5030031;28;20039;-75
2022/10/08 00:53:53;;;;;;;17.60;3.72;;;14.70;83.40;;;;;;5031009;28;20033;-74
2022/10/08 00:56:21;;;;;;;15.52;4.38;;;14.70;83.80;;;;;;5031003;28;20037;-75
2022/10/08 00:58:48;;;;;;;20.63;5.38;;;14.70;83.60;;;;;;5025585;28;20120;-73
2022/10/08 01:01:17;;;;;;;16.35;5.00;;;14.80;84.00;;;;;;5026094;28;20471;-75
2022/10/08 01:03:42;;;;;;;13.05;4.45;;;14.70;84.20;;;;;;5028687;28;20022;-75
2022/10/08 01:06:27;;;;;;;15.00;4.57;;;14.70;85.00;;;;;;5022824;28;20538;-75
2022/10/08 01:08:58;;;;;;;16.35;5.10;;;14.80;85.10;;;;;;5030639;28;20359;-75
2022/10/08 01:11:42;;;;;;;17.02;4.78;;;14.80;85.60;;;;;;5017905;28;20575;-74
2022/10/08 01:14:13;;;;;;;11.93;4.32;;;14.70;85.50;;;;;;5021630;28;20050;-73
2022/10/08 01:16:44;;;;;;;11.93;4.32;;;14.70;86.40;;;;;;5031366;28;20147;-75
2022/10/08 01:19:34;;;;;;;17.30;4.88;;;14.60;87.20;;;;;;5013150;28;20567;-74
2022/10/08 01:22:19;;;;;;;15.00;4.85;;;14.60;87.70;;;;;;5029979;28;20542;-75
2022/10/08 01:27:49;;;;;;;17.70;4.97;;;14.50;89.70;;;;;;5030120;28;20044;-75
2022/10/08 01:30:17;;;;;;;15.10;4.55;;;14.50;89.50;;;;;;5030045;28;20059;-75
2022/10/08 01:32:53;;;;;;;17.58;4.85;;;14.50;90.00;;;;;;5030968;28;20036;-76
2022/10/08 01:35:27;;;;;;;18.20;6.68;;;14.50;90.10;;;;;;5027156;28;20043;-76
2022/10/08 01:37:56;;;;;;;18.15;5.72;;;14.50;90.10;;;;;;5030292;28;20351;-76
2022/10/08 01:40:28;;;;;;;14.98;4.60;;;14.50;90.30;;;;;;5029555;28;20037;-76
2022/10/08 01:42:57;;;;;;;21.55;5.15;;;14.50;90.50;;;;;;5029848;28;20034;-76
2022/10/08 01:45:31;;;;;;;13.65;4.20;;;14.40;90.50;;;;;;5029466;28;20468;-76
2022/10/08 01:48:00;;;;;;;16.60;5.45;;;14.40;90.90;;;;;;5013660;28;20040;-76
2022/10/08 01:50:33;;;;;;;14.10;5.50;;;14.40;91.00;;;;;;5019959;28;20053;-76
2022/10/08 01:53:10;;;;;;;12.93;4.45;;;14.40;91.00;;;;;;5011590;28;20022;-77
2022/10/08 01:55:39;;;;;;;15.18;4.70;;;14.40;91.00;;;;;;5024433;28;20084;-76
2022/10/08 01:58:30;;;;;;;14.87;4.67;;;14.40;90.90;;;;;;5023697;28;20553;-76
2022/10/08 02:00:58;;;;;;;9.40;3.65;;;14.40;91.00;;;;;;5027702;28;20083;-75
2022/10/08 02:03:24;;;;;;;10.15;3.50;;;14.40;91.10;;;;;;5028449;28;20152;-76
2022/10/08 02:05:53;;;;;;;12.85;3.95;;;14.40;91.30;;;;;;5029788;28;20044;-75
2022/10/08 02:08:21;;;;;;;9.88;3.28;;;14.30;91.50;;;;;;5029046;28;20128;-76
2022/10/08 02:10:47;;;;;;;12.50;3.83;;;14.30;91.40;;;;;;5029654;28;20511;-76
2022/10/08 02:13:13;;;;;;;8.73;3.88;;;14.30;91.40;;;;;;5028571;28;20109;-76
2022/10/08 02:16:00;;;;;;;13.85;4.90;;;14.30;91.50;;;;;;5029157;28;20677;-77
2022/10/08 02:19:12;;;;;;;12.57;4.78;;;14.30;91.50;;;;;;5020451;28;20598;-76
2022/10/08 02:21:39;;;;;;;15.88;6.07;;;14.30;91.60;;;;;;4982121;28;20137;-76
2022/10/08 02:24:18;;;;;;;13.20;6.35;;;14.40;91.70;;;;;;5029727;28;20035;-75
2022/10/08 02:26:48;;;;;;;14.82;6.30;;;14.30;91.70;;;;;;5023361;28;20404;-75
2022/10/08 02:29:29;;;;;;;14.48;8.88;;;14.30;91.80;;;;;;5023284;28;20113;-75
2022/10/08 02:32:19;;;;;;;15.02;7.93;;;14.30;92.00;;;;;;5023148;28;20045;-75
2022/10/08 02:35:14;;;;;;;13.32;7.45;;;14.30;92.10;;;;;;5016253;28;20079;-73
2022/10/08 02:37:46;;;;;;;18.15;9.05;;;14.30;92.00;;;;;;5027553;28;20128;-75
2022/10/08 02:40:15;;;;;;;17.75;9.07;;;14.30;92.00;;;;;;5032921;28;20026;-76
2022/10/08 02:42:45;;;;;;;21.83;11.20;;;14.30;92.30;;;;;;5032697;28;20029;-77
2022/10/08 02:45:18;;;;;;;20.08;11.80;;;14.30;92.50;;;;;;5031274;28;20117;-76
2022/10/08 02:47:47;;;;;;;22.65;10.43;;;14.30;92.50;;;;;;5032907;28;20029;-76
2022/10/08 02:50:17;;;;;;;22.35;12.35;;;14.30;92.70;;;;;;5033017;28;20033;-76
2022/10/08 02:52:44;;;;;;;18.23;9.93;;;14.30;92.70;;;;;;5032975;28;20022;-77
2022/10/08 02:55:48;;;;;;;17.65;8.57;;;14.30;92.70;;;;;;5032386;28;20037;-76
2022/10/08 02:58:14;;;;;;;24.77;11.50;;;14.30;92.70;;;;;;5014833;28;20462;-76
2022/10/08 03:00:49;;;;;;;13.43;8.25;;;14.40;92.80;;;;;;5014945;28;20026;-76
2022/10/08 03:03:21;;;;;;;15.23;9.48;;;14.40;92.80;;;;;;5016182;28;20021;-76
2022/10/08 03:05:49;;;;;;;17.38;10.13;;;14.40;92.80;;;;;;5015947;28;20061;-76
2022/10/08 03:08:16;;;;;;;21.20;10.80;;;14.40;92.80;;;;;;5024889;28;20025;-77
2022/10/08 03:10:42;;;;;;;17.05;8.65;;;14.40;92.80;;;;;;5033501;28;20034;-76
2022/10/08 03:13:10;;;;;;;23.63;9.77;;;14.40;92.80;;;;;;5030822;28;20022;-77
2022/10/08 03:15:36;;;;;;;17.75;8.82;;;14.40;92.90;;;;;;5031280;28;20034;-76
2022/10/08 03:18:07;;;;;;;18.35;9.45;;;14.30;92.80;;;;;;5034464;28;20108;-77
2022/10/08 03:20:44;;;;;;;16.42;9.70;;;14.30;92.90;;;;;;5032894;28;20062;-77
2022/10/08 03:23:11;;;;;;;23.63;10.43;;;14.30;92.80;;;;;;5012975;28;20108;-79
2022/10/08 03:25:37;;;;;;;19.15;9.60;;;14.30;92.90;;;;;;5032510;28;20060;-78
2022/10/08 03:28:04;;;;;;;20.88;10.68;;;14.30;92.90;;;;;;5031748;28;20034;-77
2022/10/08 03:30:30;;;;;;;15.45;8.65;;;14.30;92.90;;;;;;5017272;28;20041;-74
2022/10/08 03:32:55;;;;;;;19.45;9.20;;;14.30;92.90;;;;;;5032275;28;20018;-75
2022/10/08 03:35:21;;;;;;;14.60;8.65;;;14.20;92.90;;;;;;5028898;28;20022;-75
2022/10/08 03:37:47;;;;;;;15.65;8.50;;;14.30;93.00;;;;;;5014152;28;20029;-74
2022/10/08 03:40:13;;;;;;;23.17;10.57;;;14.30;92.80;;;;;;5033524;28;20605;-76
2022/10/08 03:42:39;;;;;;;20.38;11.52;;;14.30;93.00;;;;;;5033897;28;20108;-76
2022/10/08 03:45:05;;;;;;;13.90;8.30;;;14.30;93.10;;;;;;5032707;28;20092;-76
2022/10/08 03:47:33;;;;;;;18.05;8.90;;;14.30;92.80;;;;;;5032479;28;20033;-75
2022/10/08 03:49:59;;;;;;;18.48;8.20;;;14.20;92.90;;;;;;5031964;28;20049;-77
2022/10/08 03:52:24;;;;;;;16.88;9.57;;;14.20;93.00;;;;;;5015295;28;20485;-75
2022/10/08 03:54:50;;;;;;;17.67;8.35;;;14.20;93.10;;;;;;5025352;28;20053;-76
2022/10/08 03:57:15;;;;;;;15.60;8.27;;;14.10;93.00;;;;;;5032725;28;20025;-76
2022/10/08 03:59:41;;;;;;;14.73;7.60;;;14.10;93.20;;;;;;5024382;28;20069;-77
2022/10/08 04:02:06;;;;;;;17.38;7.35;;;14.10;93.30;;;;;;5014655;28;20037;-77
2022/10/08 04:04:32;;;;;;;18.42;7.85;;;14.00;93.30;;;;;;5032207;28;20017;-76
2022/10/08 04:06:57;;;;;;;20.92;7.88;;;14.10;93.40;;;;;;5032107;28;20041;-76
2022/10/08 04:09:23;;;;;;;21.02;9.55;;;14.10;93.30;;;;;;5031030;28;20018;-76
2022/10/08 04:11:49;;;;;;;14.48;6.85;;;14.00;93.30;;;;;;5030965;28;20048;-76
2022/10/08 04:14:14;;;;;;;13.75;7.70;;;14.00;93.30;;;;;;5032553;28;20022;-77
2022/10/08 04:16:40;;;;;;;15.20;7.05;;;14.00;93.40;;;;;;5032839;28;20037;-75
2022/10/08 04:19:06;;;;;;;21.50;9.75;;;14.00;93.40;;;;;;5031601;28;20032;-76
2022/10/08 04:21:31;;;;;;;19.25;9.23;;;14.00;93.10;;;;;;5030274;28;20049;-78
2022/10/08 04:23:57;;;;;;;18.45;8.00;;;14.00;93.20;;;;;;5032534;28;20096;-76
2022/10/08 04:26:23;;;;;;;18.73;8.15;;;13.90;93.50;;;;;;5030708;28;20148;-77
2022/10/08 04:28:55;;;;;;;19.50;7.47;;;13.90;93.70;;;;;;5031957;28;20024;-78
2022/10/08 04:31:22;;;;;;;14.35;7.80;;;13.90;93.50;;;;;;5031791;28;20080;-77
2022/10/08 04:33:49;;;;;;;16.75;7.57;;;13.90;93.50;;;;;;5014127;28;20636;-76
2022/10/08 04:36:20;;;;;;;16.00;8.45;;;13.80;93.60;;;;;;5024587;28;20057;-76
2022/10/08 04:38:47;;;;;;;14.45;8.00;;;13.80;93.60;;;;;;5028588;28;20547;-78
2022/10/08 04:41:23;;;;;;;16.63;7.47;;;13.80;93.70;;;;;;5032372;28;20565;-78
2022/10/08 04:43:50;;;;;;;15.88;8.27;;;13.80;93.80;;;;;;5033636;28;20034;-78
2022/10/08 04:46:19;;;;;;;19.17;7.32;;;13.80;93.90;;;;;;5031876;28;20037;-79
2022/10/08 04:48:48;;;;;;;20.30;9.38;;;13.80;93.50;;;;;;5032234;28;20025;-79
2022/10/08 04:51:15;;;;;;;22.63;9.77;;;13.80;93.60;;;;;;5031930;28;20041;-79
2022/10/08 04:53:42;;;;;;;16.35;8.45;;;13.80;93.70;;;;;;5032175;28;20025;-76
2022/10/08 04:56:20;;;;;;;15.75;8.85;;;13.70;93.90;;;;;;5030642;28;21910;-78
2022/10/08 04:58:47;;;;;;;19.77;10.13;;;13.80;93.90;;;;;;5014792;28;20080;-77
2022/10/08 05:01:16;;;;;;;14.82;8.10;;;13.80;93.90;;;;;;5030464;28;20861;-76
2022/10/08 05:03:48;;;;;;;21.10;11.95;;;13.80;93.80;;;;;;5031390;28;20029;-78
2022/10/08 05:06:15;;;;;;;22.85;12.35;;;13.80;93.80;;;;;;5030947;28;20052;-77
2022/10/08 05:08:42;;;;;;;17.02;9.48;;;13.70;94.00;;;;;;5032040;28;20013;-77
2022/10/08 05:11:08;;;;;;;30.40;13.90;;;13.70;94.00;;;;;;5031242;28;20061;-78
2022/10/08 05:13:34;;;;;;;27.10;14.90;;;13.70;94.20;;;;;;5032231;28;20049;-79
2022/10/08 05:16:04;;;;;;;23.88;12.93;;;13.60;94.40;;;;;;5030781;28;20060;-79
2022/10/08 05:18:31;;;;;;;26.05;12.45;;;13.70;94.20;;;;;;5029367;28;20025;-77
2022/10/08 05:21:08;;;;;;;20.67;13.77;;;13.70;94.20;;;;;;5032122;28;20053;-78
2022/10/08 05:23:36;;;;;;;20.80;12.25;;;13.60;94.30;;;;;;5030814;28;20036;-79
2022/10/08 05:26:16;;;;;;;24.48;15.13;;;13.60;94.30;;;;;;5031645;28;20037;-76
2022/10/08 05:28:43;;;;;;;19.45;12.80;;;13.70;94.20;;;;;;5033772;28;20033;-78
2022/10/08 05:31:08;;;;;;;22.42;12.48;;;13.60;94.20;;;;;;5037018;28;20036;-78
2022/10/08 05:33:35;;;;;;;19.38;12.30;;;13.70;94.20;;;;;;5035758;28;20014;-79
2022/10/08 05:36:32;;;;;;;22.83;13.45;;;13.60;94.10;;;;;;5031910;28;20076;-79
2022/10/08 05:39:00;;;;;;;21.73;12.52;;;13.70;94.30;;;;;;5031801;28;20528;-78
2022/10/08 05:41:28;;;;;;;26.35;14.63;;;13.70;94.20;;;;;;5031386;28;20021;-78
2022/10/08 05:43:55;;;;;;;17.67;12.13;;;13.70;94.20;;;;;;5030918;28;20049;-78
2022/10/08 05:46:23;;;;;;;22.33;13.40;;;13.70;94.20;;;;;;5030805;28;20115;-78
2022/10/08 05:48:55;;;;;;;25.60;16.23;;;13.70;94.50;;;;;;5030684;28;20033;-78
2022/10/08 05:51:22;;;;;;;24.40;15.80;;;13.70;94.40;;;;;;5029638;28;20014;-78
2022/10/08 05:53:49;;;;;;;24.77;14.18;;;13.70;94.40;;;;;;5030295;28;20071;-78
2022/10/08 05:56:17;;;;;;;19.42;12.38;;;13.70;94.30;;;;;;5012207;28;20044;-78
2022/10/08 05:58:43;;;;;;;19.58;11.30;;;13.70;94.30;;;;;;5025522;28;20494;-78
2022/10/08 06:01:21;;;;;;;18.73;12.13;;;13.70;94.00;;;;;;5024123;28;20388;-79
2022/10/08 06:03:51;;;;;;;24.20;12.60;;;13.60;94.10;;;;;;5014644;28;20021;-78
2022/10/08 06:06:17;;;;;;;22.85;13.43;;;13.60;94.30;;;;;;5032250;28;20040;-77
2022/10/08 06:08:44;;;;;;;23.75;13.13;;;13.60;94.30;;;;;;5014939;28;20026;-77
2022/10/08 06:11:10;;;;;;;15.18;10.45;;;13.60;94.30;;;;;;5004240;28;20166;-75
2022/10/08 06:13:37;;;;;;;26.08;16.20;;;13.60;94.50;;;;;;5023590;28;20026;-79
2022/10/08 06:16:06;;;;;;;25.63;15.35;;;13.50;94.50;;;;;;5029240;28;20033;-77
2022/10/08 06:18:34;;;;;;;23.83;14.38;;;13.60;94.50;;;;;;5029223;28;20030;-80
2022/10/08 06:21:02;;;;;;;16.30;11.90;;;13.50;94.40;;;;;;5003024;28;20047;-77
2022/10/08 06:23:28;;;;;;;26.05;14.07;;;13.50;94.50;;;;;;5007424;28;20049;-79
2022/10/08 06:25:53;;;;;;;26.67;15.98;;;13.50;94.60;;;;;;5010501;28;20034;-79
2022/10/08 06:28:19;;;;;;;22.70;13.68;;;13.50;94.60;;;;;;5010921;28;20026;-76
2022/10/08 06:30:45;;;;;;;25.70;15.55;;;13.50;94.50;;;;;;5010319;28;20399;-79
2022/10/08 06:33:10;;;;;;;22.23;14.50;;;13.50;94.60;;;;;;5009521;28;20101;-79
2022/10/08 06:35:36;;;;;;;22.50;13.07;;;13.50;94.50;;;;;;5008722;28;20052;-78
2022/10/08 06:38:05;;;;;;;15.07;10.68;;;13.50;94.60;;;;;;5010140;28;20030;-77
2022/10/08 06:40:32;;;;;;;23.85;13.02;;;13.50;94.60;;;;;;5009528;28;20025;-78
2022/10/08 06:42:58;;;;;;;25.00;14.55;;;13.60;94.60;;;;;;5010886;28;20553;-78
2022/10/08 06:45:24;;;;;;;20.55;12.35;;;13.60;94.60;;;;;;5009571;28;20069;-78
2022/10/08 06:47:49;;;;;;;18.15;11.02;;;13.50;94.60;;;;;;4996948;28;20065;-75
2022/10/08 06:50:15;;;;;;;23.65;13.82;;;13.60;94.50;;;;;;5005534;28;20567;-77
2022/10/08 06:52:41;;;;;;;24.63;14.30;;;13.60;94.50;;;;;;5010519;28;20033;-79
2022/10/08 06:55:06;;;;;;;15.93;10.40;;;13.60;94.30;;;;;;5005467;28;20056;-78
2022/10/08 06:57:35;;;;;;;20.65;9.45;;;13.60;94.40;;;;;;5010526;28;20045;-78
2022/10/08 07:00:02;;;;;;;16.52;9.80;;;13.70;94.50;;;;;;5009725;28;20056;-78
2022/10/08 07:02:27;;;;;;;21.70;9.38;;;13.80;94.60;;;;;;5009485;28;20489;-73
2022/10/08 07:04:54;;;;;;;15.85;6.72;;;13.90;94.90;;;;;;5009127;28;20037;-72
2022/10/08 07:07:20;;;;;;;14.55;8.13;;;14.10;94.20;;;;;;5004196;28;20053;-73
2022/10/08 07:09:45;;;;;;;9.35;4.78;;;14.30;94.00;;;;;;4989851;28;20018;-72
2022/10/08 07:12:12;;;;;;;12.32;6.00;;;14.50;93.40;;;;;;5007760;28;20030;-72
2022/10/08 07:14:38;;;;;;;10.88;6.93;;;14.70;92.90;;;;;;5006291;28;20496;-72
2022/10/08 07:17:03;;;;;;;12.55;7.20;;;14.90;92.80;;;;;;5010020;28;20030;-72
2022/10/08 07:19:29;;;;;;;11.43;6.40;;;15.00;92.50;;;;;;5010050;28;20052;-73
2022/10/08 07:21:54;;;;;;;13.25;5.90;;;15.20;92.30;;;;;;5026391;28;20049;-74
2022/10/08 07:24:20;;;;;;;12.07;6.25;;;15.40;92.10;;;;;;5013892;28;20018;-73
2022/10/08 07:26:45;;;;;;;9.85;5.63;;;15.50;91.30;;;;;;5031663;28;20155;-74
2022/10/08 07:29:13;;;;;;;14.50;5.35;;;15.70;91.10;;;;;;5031371;28;20033;-72
2022/10/08 07:31:39;;;;;;;11.90;5.05;;;15.80;90.60;;;;;;5031183;28;20069;-72
2022/10/08 07:34:07;;;;;;;9.77;5.40;;;15.90;90.20;;;;;;5031333;28;20040;-73
2022/10/08 07:36:33;;;;;;;8.27;4.03;;;16.00;89.90;;;;;;5031415;28;20037;-73
2022/10/08 07:39:05;;;;;;;11.48;4.72;;;16.10;88.70;;;;;;5031776;28;20084;-72
2022/10/08 07:41:31;;;;;;;11.52;4.47;;;16.20;88.50;;;;;;5032560;28;20638;-73
2022/10/08 07:44:00;;;;;;;14.18;3.92;;;16.40;87.80;;;;;;5028338;28;20032;-71
2022/10/08 07:46:27;;;;;;;8.57;4.00;;;16.50;86.90;;;;;;5029395;28;20022;-73
2022/10/08 07:48:57;;;;;;;10.65;4.20;;;16.50;86.30;;;;;;5031690;28;20030;-73
2022/10/08 07:51:24;;;;;;;8.38;2.90;;;16.60;86.80;;;;;;5031057;28;20032;-72
2022/10/08 07:53:50;;;;;;;9.77;3.63;;;16.80;86.10;;;;;;5030075;28;20080;-73
2022/10/08 07:56:18;;;;;;;11.10;3.35;;;16.90;85.00;;;;;;5031216;28;20049;-71
2022/10/08 07:58:46;;;;;;;9.20;2.67;;;17.00;83.80;;;;;;5012403;28;20116;-73
2022/10/08 08:01:14;;;;;;;7.07;2.35;;;17.10;83.70;;;;;;5028785;28;20446;-72
2022/10/08 08:03:40;;;;;;;6.45;2.15;;;17.20;82.80;;;;;;5030535;28;20056;-72
2022/10/08 08:06:12;;;;;;;10.18;2.45;;;17.30;82.30;;;;;;5030506;28;20108;-73
2022/10/08 08:08:39;;;;;;;6.00;1.75;;;17.60;81.20;;;;;;5013025;28;20029;-74
2022/10/08 08:11:07;;;;;;;12.38;3.15;;;17.70;80.90;;;;;;5028637;28;20380;-71
2022/10/08 08:13:35;;;;;;;11.75;3.00;;;17.70;79.40;;;;;;5030151;28;20025;-72
2022/10/08 08:16:06;;;;;;;9.20;2.10;;;17.70;78.50;;;;;;5013735;28;20022;-73
2022/10/08 08:18:34;;;;;;;7.03;1.92;;;17.70;78.60;;;;;;5026834;28;20073;-73
2022/10/08 08:21:09;;;;;;;5.55;1.55;;;17.80;78.20;;;;;;5013992;28;20053;-73
2022/10/08 08:23:37;;;;;;;6.03;1.50;;;17.80;78.10;;;;;;5027337;28;20470;-72
2022/10/08 08:26:06;;;;;;;6.45;1.30;;;17.90;76.70;;;;;;5031355;28;20034;-72
2022/10/08 08:28:32;;;;;;;6.93;1.92;;;17.90;77.00;;;;;;5026275;28;21274;-73
2022/10/08 08:31:14;;;;;;;8.52;2.53;;;18.00;77.40;;;;;;5029443;28;20084;-73
2022/10/08 08:33:41;;;;;;;6.15;1.80;;;18.10;76.00;;;;;;5028254;28;20017;-73
2022/10/08 08:36:07;;;;;;;4.85;1.30;;;18.20;73.90;;;;;;5029717;28;20021;-71
2022/10/08 08:38:37;;;;;;;6.38;1.65;;;18.20;74.50;;;;;;5029186;28;20025;-71
2022/10/08 08:41:39;;;;;;;6.67;1.47;;;18.20;74.30;;;;;;5029172;28;20036;-72
2022/10/08 08:44:24;;;;;;;7.40;1.75;;;18.30;76.50;;;;;;5010245;28;20017;-72
2022/10/08 08:46:55;;;;;;;9.43;2.08;;;18.60;74.60;;;;;;5025441;28;20045;-72
2022/10/08 08:49:30;;;;;;;12.02;1.60;;;18.50;72.60;;;;;;5010759;28;20838;-72
2022/10/08 08:51:58;;;;;;;8.18;2.00;;;18.50;73.50;;;;;;5027916;28;20056;-72
2022/10/08 08:54:23;;;;;;;5.60;1.52;;;18.50;72.50;;;;;;5028872;28;20091;-72
2022/10/08 08:56:51;;;;;;;5.25;1.08;;;18.60;72.30;;;;;;5008825;28;20484;-73
2022/10/08 08:59:28;;;;;;;5.80;1.50;;;18.60;71.90;;;;;;5028740;28;20021;-72
2022/10/08 09:01:58;;;;;;;5.57;1.48;;;18.60;70.70;;;;;;5006303;28;20468;-72
2022/10/08 09:04:33;;;;;;;6.45;1.25;;;18.60;71.50;;;;;;5029339;28;20112;-71
2022/10/08 09:07:02;;;;;;;8.63;1.38;;;18.70;69.40;;;;;;5024126;28;20064;-70
2022/10/08 09:09:43;;;;;;;7.05;1.45;;;18.70;68.40;;;;;;5027459;28;20496;-72
2022/10/08 09:12:13;;;;;;;;;;;18.70;68.00;;;;;;5029053;28;20392;-71
2022/10/08 09:14:49;;;;;;;5.22;1.08;;;18.60;68.00;;;;;;5028654;28;19924;-71
2022/10/08 09:17:17;;;;;;;7.10;1.38;;;18.60;69.10;;;;;;5009112;28;20795;-73
2022/10/08 09:19:45;;;;;;;9.18;1.73;;;18.60;70.90;;;;;;5028308;28;20029;-72
2022/10/08 09:22:39;;;;;;;8.02;1.30;;;18.70;70.40;;;;;;5027531;28;20041;-71
2022/10/08 09:25:13;;;;;;;7.55;1.42;;;18.80;69.40;;;;;;5027887;28;20112;-73
2022/10/08 09:28:03;;;;;;;7.15;1.70;;;18.90;69.60;;;;;;5028583;28;20056;-72
2022/10/08 09:30:38;;;;;;;7.70;1.08;;;19.10;67.60;;;;;;5026302;28;20712;-70
2022/10/08 09:33:28;;;;;;;9.90;1.63;;;19.10;65.10;;;;;;5010712;28;20030;-71
2022/10/08 09:35:54;;;;;;;8.20;1.45;;;19.10;64.60;;;;;;5028202;28;20030;-70
2022/10/08 09:38:30;;;;;;;6.57;1.33;;;18.90;65.30;;;;;;5025665;28;20021;-72
2022/10/08 09:41:00;;;;;;;7.45;1.48;;;18.90;68.90;;;;;;5022747;28;20087;-70
2022/10/08 09:43:25;;;;;;;8.82;1.05;;;18.90;67.50;;;;;;5025426;28;20033;-70
2022/10/08 09:45:53;;;;;;;7.40;1.45;;;18.80;65.00;;;;;;5025933;28;20048;-71
2022/10/08 09:48:26;;;;;;;7.00;1.10;;;18.70;64.90;;;;;;5010156;28;20021;-71
2022/10/08 09:50:58;;;;;;;9.40;1.55;;;18.70;64.20;;;;;;5025666;28;20033;-72
2022/10/08 09:53:27;;;;;;;12.45;1.95;;;18.50;65.00;;;;;;5025306;28;20021;-70
2022/10/08 09:55:55;;;;;;;5.97;1.45;;;18.50;67.80;;;;;;5026237;28;20356;-72
2022/10/08 09:58:21;;;;;;;5.22;1.15;;;18.40;69.60;;;;;;5028791;28;20372;-72
2022/10/08 10:00:56;;;;;;;6.50;1.27;;;18.30;70.70;;;;;;5027828;28;20040;-70
2022/10/08 10:03:23;;;;;;;6.05;1.48;;;18.20;69.20;;;;;;5026004;28;20040;-71
2022/10/08 10:05:53;;;;;;;8.40;1.40;;;18.20;69.90;;;;;;5027336;28;20047;-70
2022/10/08 10:08:45;;;;;;;4.82;1.00;;;18.10;74.00;;;;;;5027641;28;20037;-70
2022/10/08 10:11:16;;;;;;;5.70;1.23;;;18.00;73.70;;;;;;5028861;28;20399;-70
2022/10/08 10:13:46;;;;;;;4.88;1.15;;;18.00;72.00;;;;;;5026278;28;20033;-70
2022/10/08 10:16:31;;;;;;;5.90;1.40;;;18.00;70.20;;;;;;5022053;28;20030;-70
2022/10/08 10:19:10;;;;;;;5.28;1.05;;;18.10;75.30;;;;;;5006784;28;20051;-70
2022/10/08 10:21:51;;;;;;;4.28;0.90;;;18.20;68.90;;;;;;5006413;28;20049;-71
2022/10/08 10:24:51;;;;;;;5.57;0.90;;;18.40;70.40;;;;;;5024790;28;20033;-70
2022/10/08 10:27:37;;;;;;;5.05;1.10;;;18.70;68.00;;;;;;5023347;28;20033;-71
2022/10/08 10:30:21;;;;;;;6.22;1.50;;;18.80;65.60;;;;;;5025390;28;20088;-70
2022/10/08 10:32:57;;;;;;;4.22;1.13;;;19.00;71.70;;;;;;5008312;28;20083;-72
2022/10/08 10:35:28;;;;;;;6.32;1.35;;;19.30;70.10;;;;;;5022966;28;20025;-71
2022/10/08 10:38:14;;;;;;;5.75;1.00;;;19.20;67.10;;;;;;5023096;28;20022;-70
2022/10/08 10:41:04;;;;;;;4.30;1.00;;;19.00;66.50;;;;;;5023507;28;20104;-71
2022/10/08 10:43:36;;;;;;;5.38;1.40;;;18.70;68.40;;;;;;5026259;28;20495;-74
2022/10/08 10:46:32;;;;;;;4.72;1.42;;;18.50;66.50;;;;;;5026547;28;20037;-74
2022/10/08 10:48:58;;;;;;;11.50;1.67;;;18.20;69.00;;;;;;5023656;28;20079;-75
2022/10/08 10:52:04;;;;;;;4.15;0.80;;;18.00;67.40;;;;;;5025188;28;20032;-73
2022/10/08 10:54:47;;;;;;;10.20;2.17;;;17.80;68.40;;;;;;5026628;28;20648;-75
2022/10/08 10:57:42;;;;;;;7.90;1.98;;;17.70;67.90;;;;;;5023840;28;20032;-74
2022/10/08 11:00:32;;;;;;;5.68;1.17;;;17.60;68.50;;;;;;5029593;28;20480;-73
2022/10/08 11:03:10;;;;;;;8.05;1.83;;;17.50;69.70;;;;;;5011724;28;20490;-75
2022/10/08 11:05:37;;;;;;;9.75;2.17;;;17.50;70.50;;;;;;5028299;28;20029;-73
2022/10/08 11:08:19;;;;;;;5.07;1.38;;;17.80;69.50;;;;;;5030473;28;20041;-74
2022/10/08 11:11:16;;;;;;;9.27;1.45;;;17.90;68.10;;;;;;5032180;28;20032;-75
2022/10/08 11:13:52;;;;;;;5.97;1.20;;;18.30;68.80;;;;;;5030699;28;20420;-73
2022/10/08 11:16:39;;;;;;;5.63;1.02;;;18.40;67.70;;;;;;5011885;28;20369;-74
2022/10/08 11:19:17;;;;;;;7.10;1.30;;;18.80;68.40;;;;;;5013014;28;20018;-74
2022/10/08 11:22:02;;;;;;;7.22;1.60;;;19.00;66.10;;;;;;5029744;28;20037;-75
2022/10/08 11:24:50;;;;;;;7.30;1.40;;;19.20;65.60;;;;;;5024047;28;20034;-75
2022/10/08 11:27:33;;;;;;;8.63;1.20;;;19.20;65.30;;;;;;5025073;28;20836;-75
2022/10/08 11:30:11;;;;;;;10.30;1.40;;;19.40;65.00;;;;;;5025206;28;20021;-74
2022/10/08 11:32:37;;;;;;;9.25;1.75;;;19.60;64.00;;;;;;5028457;28;20021;-75
2022/10/08 11:35:23;;;;;;;10.38;1.85;;;19.80;64.00;;;;;;5030993;28;20025;-75
2022/10/08 11:37:55;;;;;;;10.05;1.30;;;20.10;63.00;;;;;;5030508;28;20025;-75
2022/10/08 11:40:29;;;;;;;9.25;1.55;;;20.00;60.30;;;;;;5029410;28;20491;-75
2022/10/08 11:43:06;;;;;;;8.13;1.17;;;19.80;60.20;;;;;;5006268;28;20549;-75
2022/10/08 11:45:36;;;;;;;9.75;1.38;;;19.40;62.60;;;;;;5030318;28;20043;-73
2022/10/08 11:48:29;;;;;;;7.57;1.67;;;19.20;65.50;;;;;;5028802;28;20061;-74
2022/10/08 11:51:19;;;;;;;10.63;2.03;;;18.90;64.00;;;;;;5025143;28;20092;-74
2022/10/08 11:54:27;;;;;;;14.45;1.98;;;19.00;65.50;;;;;;5024995;28;20025;-74
2022/10/08 11:57:17;;;;;;;9.60;1.65;;;19.20;63.90;;;;;;5011699;28;20063;-72
2022/10/08 11:59:55;;;;;;;7.57;2.00;;;19.30;63.40;;;;;;5024719;28;20109;-75
2022/10/08 12:02:30;;;;;;;8.05;2.00;;;19.70;64.10;;;;;;5030456;28;20021;-75
2022/10/08 12:05:22;;;;;;;4.50;1.17;;;19.80;61.00;;;;;;5028607;28;20037;-73
2022/10/08 12:07:57;;;;;;;8.90;1.30;;;20.10;64.60;;;;;;5024415;28;20104;-72
2022/10/08 12:10:31;;;;;;;5.50;1.25;;;20.40;62.30;;;;;;5033074;28;20033;-75
2022/10/08 12:13:00;;;;;;;8.88;2.10;;;20.60;57.80;;;;;;5025733;28;20083;-76
2022/10/08 12:15:26;;;;;;;9.82;1.90;;;20.70;56.60;;;;;;5025536;28;20095;-76
2022/10/08 12:17:52;;;;;;;7.25;1.20;;;20.80;58.90;;;;;;5012547;28;20041;-75
2022/10/08 12:20:23;;;;;;;6.45;1.45;;;21.00;60.40;;;;;;5030300;28;20053;-74
2022/10/08 12:23:08;;;;;;;6.28;0.90;;;21.10;56.50;;;;;;5028073;28;20084;-74
2022/10/08 12:25:35;;;;;;;5.40;1.27;;;21.20;55.30;;;;;;5029604;28;20531;-75
2022/10/08 12:28:19;;;;;;;8.80;1.90;;;21.00;58.40;;;;;;5012712;28;20425;-74
2022/10/08 12:30:46;;;;;;;5.03;1.30;;;20.90;52.10;;;;;;5026690;28;20045;-75
2022/10/08 12:33:12;;;;;;;8.52;1.50;;;20.80;59.40;;;;;;5028635;28;20021;-75
2022/10/08 12:36:01;;;;;;;8.05;1.50;;;20.70;56.50;;;;;;5010240;28;20033;-75
2022/10/08 12:38:59;;;;;;;6.25;1.92;;;20.70;53.00;;;;;;5021138;28;20033;-74
2022/10/08 12:41:39;;;;;;;6.53;1.73;;;20.80;56.20;;;;;;5028365;28;20061;-75
2022/10/08 12:44:29;;;;;;;9.70;2.50;;;20.90;58.00;;;;;;5029555;28;20028;-75
2022/10/08 12:47:13;;;;;;;8.23;1.58;;;21.20;63.80;;;;;;5027087;28;20041;-75
2022/10/08 12:50:14;;;;;;;8.13;1.63;;;21.30;53.40;;;;;;5028644;28;20052;-75
2022/10/08 12:52:40;;;;;;;11.77;2.60;;;21.30;65.20;;;;;;5029009;28;20045;-75
2022/10/08 12:55:13;;;;;;;9.82;1.63;;;21.20;54.40;;;;;;5030407;28;20484;-73
2022/10/08 12:57:40;;;;;;;9.73;1.38;;;21.10;58.60;;;;;;5026160;28;20471;-75
2022/10/08 13:00:16;;;;;;;6.70;2.30;;;21.00;56.90;;;;;;5029987;28;20025;-75
2022/10/08 13:02:42;;;;;;;5.35;1.27;;;21.10;60.30;;;;;;5028045;28;20492;-75
2022/10/08 13:05:30;;;;;;;7.88;1.60;;;21.20;55.70;;;;;;5030166;28;20036;-75
2022/10/08 13:07:56;;;;;;;6.60;1.70;;;21.40;55.40;;;;;;5026893;28;20040;-73